createdAt,value
2023-05-04T06:26:17.334Z,7.28
2023-05-04T06:27:17.286Z,7.36
2023-05-04T06:28:17.469Z,7.28
2023-05-04T06:29:30.302Z,6.96
2023-05-04T06:30:30.290Z,7.76
2023-05-04T06:31:30.358Z,7.76
2023-05-04T06:32:30.304Z,8.15
2023-05-04T06:33:30.258Z,7.92
2023-05-04T06:34:30.258Z,6.79
2023-05-04T06:35:30.268Z,7.44
2023-05-04T06:36:30.253Z,6.86
2023-05-04T06:37:30.216Z,8.00
2023-05-04T06:38:30.204Z,7.19
2023-05-04T06:39:30.194Z,8.07
2023-05-04T06:40:30.214Z,8.40
2023-05-04T06:41:30.195Z,8.00
2023-05-04T06:42:30.160Z,8.07
2023-05-04T06:43:30.155Z,7.52
2023-05-04T06:44:30.140Z,6.96
2023-05-04T06:45:30.148Z,6.96
2023-05-04T06:46:30.116Z,7.76
2023-05-04T06:47:30.126Z,8.23
2023-05-04T06:48:30.112Z,7.44
2023-05-04T06:49:30.087Z,7.36
2023-05-04T06:50:30.292Z,7.52
2023-05-04T06:51:30.073Z,7.84
2023-05-04T06:52:30.060Z,7.67
2023-05-04T06:53:30.058Z,7.59
2023-05-04T06:54:30.030Z,7.36
2023-05-04T06:55:30.023Z,8.07
2023-05-04T06:56:30.015Z,8.32
2023-05-04T06:57:30.131Z,8.00
2023-05-04T06:58:29.990Z,7.44
2023-05-04T06:59:29.985Z,8.07
2023-05-04T07:00:29.966Z,7.67
2023-05-04T07:01:29.982Z,8.48
2023-05-04T07:02:29.990Z,6.46
2023-05-04T07:03:29.954Z,7.28
2023-05-04T07:04:29.930Z,7.76
2023-05-04T07:05:29.931Z,7.92
2023-05-04T07:06:29.904Z,8.07
2023-05-04T07:07:29.896Z,7.84
2023-05-04T07:08:29.882Z,8.32
2023-05-04T07:09:29.874Z,8.00
2023-05-04T07:10:29.867Z,8.23
2023-05-04T07:11:29.852Z,7.67
2023-05-04T07:12:29.904Z,8.00
2023-05-04T07:13:29.852Z,8.23
2023-05-04T07:14:29.819Z,8.48
2023-05-04T07:15:30.024Z,8.00
2023-05-04T07:16:29.819Z,8.32
2023-05-04T07:17:29.849Z,8.00
2023-05-04T07:18:29.782Z,8.07
2023-05-04T07:19:29.767Z,8.07
2023-05-04T07:20:29.753Z,7.36
2023-05-04T07:21:29.796Z,8.56
2023-05-04T07:22:29.749Z,7.76
2023-05-04T07:23:29.725Z,8.40
2023-05-04T07:24:29.717Z,8.15
2023-05-04T07:25:29.703Z,8.15
2023-05-04T07:26:29.694Z,8.40
2023-05-04T07:27:29.681Z,8.32
2023-05-04T07:28:29.668Z,7.92
2023-05-04T07:29:29.677Z,8.40
2023-05-04T07:30:29.664Z,8.97
2023-05-04T07:31:30.780Z,8.07
2023-05-04T07:32:29.632Z,8.56
2023-05-04T07:33:29.623Z,8.15
2023-05-04T07:34:41.905Z,8.15
2023-05-04T07:35:29.600Z,8.32
2023-05-04T07:36:29.585Z,8.81
2023-05-04T07:37:29.577Z,8.81
2023-05-04T07:38:29.566Z,8.72
2023-05-04T07:39:29.556Z,8.72
2023-05-04T07:40:29.542Z,8.72
2023-05-04T07:41:29.534Z,9.28
2023-05-04T07:42:29.521Z,8.72
2023-05-04T07:43:29.520Z,8.89
2023-05-04T07:44:29.582Z,8.97
2023-05-04T07:45:29.617Z,9.44
2023-05-04T07:46:29.521Z,8.72
2023-05-04T07:47:29.492Z,8.64
2023-05-04T07:48:29.459Z,9.28
2023-05-04T07:49:29.454Z,9.21
2023-05-04T07:50:29.440Z,8.81
2023-05-04T07:51:29.433Z,8.97
2023-05-04T07:52:29.419Z,8.64
2023-05-04T07:53:29.417Z,8.64
2023-05-04T07:54:29.404Z,8.97
2023-05-04T07:55:29.388Z,8.56
2023-05-04T07:56:29.378Z,8.48
2023-05-04T07:57:29.501Z,9.28
2023-05-04T07:58:29.358Z,8.15
2023-05-04T07:59:29.350Z,9.28
2023-05-04T08:00:29.342Z,8.89
2023-05-04T08:01:29.556Z,8.97
2023-05-04T08:02:29.403Z,9.13
2023-05-04T08:03:29.309Z,8.64
2023-05-04T08:04:29.295Z,8.48
2023-05-04T08:05:29.290Z,8.64
2023-05-04T08:06:29.277Z,8.97
2023-05-04T08:07:29.268Z,9.21
2023-05-04T08:08:29.257Z,8.89
2023-05-04T08:09:29.253Z,9.05
2023-05-04T08:10:29.238Z,9.28
2023-05-04T08:11:29.228Z,9.60
2023-05-04T08:12:29.254Z,8.48
2023-05-04T08:13:29.352Z,8.56
2023-05-04T08:14:29.202Z,9.21
2023-05-04T08:15:29.187Z,9.28
2023-05-04T08:16:29.196Z,8.89
2023-05-04T08:17:29.215Z,9.85
2023-05-04T08:18:29.162Z,9.36
2023-05-04T08:19:29.146Z,9.44
2023-05-04T08:20:29.143Z,9.60
2023-05-04T08:21:29.124Z,8.89
2023-05-04T08:22:29.116Z,9.13
2023-05-04T08:23:29.110Z,9.52
2023-05-04T08:24:29.103Z,9.21
2023-05-04T08:25:29.087Z,9.28
2023-05-04T08:26:29.076Z,9.05
2023-05-04T08:27:29.073Z,9.36
2023-05-04T08:28:29.057Z,10.02
2023-05-04T08:29:29.059Z,9.52
2023-05-04T08:30:29.037Z,10.26
2023-05-04T08:31:29.077Z,10.02
2023-05-04T08:32:30.497Z,8.89
2023-05-04T08:33:29.027Z,9.77
2023-05-04T08:34:28.996Z,9.52
2023-05-04T08:35:28.995Z,9.21
2023-05-04T08:36:28.982Z,9.52
2023-05-04T08:37:28.973Z,10.02
2023-05-04T08:38:28.961Z,9.21
2023-05-04T08:39:28.962Z,9.85
2023-05-04T08:40:28.952Z,10.02
2023-05-04T08:41:28.934Z,9.60
2023-05-04T08:42:28.925Z,9.44
2023-05-04T08:43:28.912Z,9.68
2023-05-04T08:44:28.904Z,9.85
2023-05-04T08:45:28.933Z,10.34
2023-05-04T08:46:28.882Z,9.68
2023-05-04T08:47:29.225Z,10.65
2023-05-04T08:48:28.872Z,10.18
2023-05-04T08:49:28.916Z,9.52
2023-05-04T08:50:28.847Z,10.10
2023-05-04T08:51:28.835Z,9.77
2023-05-04T08:52:28.828Z,10.10
2023-05-04T08:53:28.815Z,9.93
2023-05-04T08:54:28.823Z,10.50
2023-05-04T08:55:28.795Z,9.93
2023-05-04T08:56:28.782Z,11.14
2023-05-04T08:57:28.776Z,9.85
2023-05-04T08:58:28.776Z,10.34
2023-05-04T08:59:28.756Z,9.60
2023-05-04T09:00:28.805Z,9.36
2023-05-04T09:01:28.827Z,10.02
2023-05-04T09:02:28.774Z,10.57
2023-05-04T09:03:28.808Z,9.77
2023-05-04T09:04:29.746Z,10.02
2023-05-04T09:05:28.721Z,9.85
2023-05-04T09:06:28.692Z,10.34
2023-05-04T09:07:28.677Z,10.26
2023-05-04T09:08:28.663Z,10.65
2023-05-04T09:09:28.726Z,10.57
2023-05-04T09:10:29.695Z,10.65
2023-05-04T09:11:28.638Z,10.73
2023-05-04T09:12:28.655Z,10.10
2023-05-04T09:13:28.621Z,9.85
2023-05-04T09:14:28.601Z,10.02
2023-05-04T09:15:28.597Z,10.57
2023-05-04T09:16:28.617Z,9.85
2023-05-04T09:17:28.601Z,11.39
2023-05-04T09:18:28.619Z,10.34
2023-05-04T09:19:28.568Z,10.73
2023-05-04T09:20:28.554Z,10.18
2023-05-04T09:21:28.627Z,10.65
2023-05-04T09:22:28.890Z,10.10
2023-05-04T09:23:28.597Z,10.18
2023-05-04T09:24:28.534Z,10.57
2023-05-04T09:25:28.515Z,10.89
2023-05-04T09:26:28.493Z,10.57
2023-05-04T09:27:28.481Z,10.26
2023-05-04T09:28:28.895Z,10.10
2023-05-04T09:29:28.464Z,10.81
2023-05-04T09:30:28.453Z,10.26
2023-05-04T09:31:28.540Z,10.26
2023-05-04T09:32:28.462Z,11.22
2023-05-04T09:33:28.430Z,10.89
2023-05-04T09:34:28.617Z,10.65
2023-05-04T09:35:33.162Z,11.14
2023-05-04T09:36:28.398Z,11.06
2023-05-04T09:37:28.488Z,11.14
2023-05-04T09:38:28.382Z,11.06
2023-05-04T09:39:28.371Z,11.06
2023-05-04T09:40:28.355Z,11.06
2023-05-04T09:41:28.348Z,10.57
2023-05-04T09:42:28.346Z,10.81
2023-05-04T09:43:28.328Z,11.22
2023-05-04T09:44:29.582Z,10.89
2023-05-04T09:45:28.309Z,11.63
2023-05-04T09:46:28.360Z,10.65
2023-05-04T09:47:28.333Z,10.65
2023-05-04T09:48:28.281Z,11.47
2023-05-04T09:49:28.276Z,10.81
2023-05-04T09:50:28.261Z,11.22
2023-05-04T09:51:28.250Z,11.22
2023-05-04T09:52:28.241Z,11.14
2023-05-04T09:53:28.268Z,10.65
2023-05-04T09:54:28.226Z,10.42
2023-05-04T09:55:28.219Z,10.81
2023-05-04T09:56:28.207Z,11.39
2023-05-04T09:57:28.192Z,11.22
2023-05-04T09:58:28.184Z,11.31
2023-05-04T09:59:28.173Z,11.39
2023-05-04T10:00:28.169Z,11.22
2023-05-04T10:01:28.154Z,11.06
2023-05-04T10:02:28.238Z,11.22
2023-05-04T10:03:28.140Z,11.31
2023-05-04T10:04:28.132Z,10.81
2023-05-04T10:05:28.156Z,11.63
2023-05-04T10:06:28.103Z,11.63
2023-05-04T10:07:28.094Z,11.63
2023-05-04T10:08:28.104Z,11.39
2023-05-04T10:09:28.106Z,11.31
2023-05-04T10:10:28.269Z,12.02
2023-05-04T10:11:28.054Z,11.71
2023-05-04T10:12:28.096Z,11.71
2023-05-04T10:13:28.053Z,11.39
2023-05-04T10:14:28.027Z,11.79
2023-05-04T10:15:28.018Z,11.63
2023-05-04T10:16:28.021Z,12.02
2023-05-04T10:17:28.029Z,11.06
2023-05-04T10:18:27.991Z,11.86
2023-05-04T10:19:27.975Z,11.39
2023-05-04T10:20:27.969Z,11.71
2023-05-04T10:21:27.960Z,11.55
2023-05-04T10:22:27.956Z,11.14
2023-05-04T10:23:27.938Z,11.47
2023-05-04T10:24:27.933Z,10.97
2023-05-04T10:25:28.032Z,11.39
2023-05-04T10:26:27.912Z,11.94
2023-05-04T10:27:27.904Z,11.71
2023-05-04T10:28:27.918Z,11.71
2023-05-04T10:29:27.880Z,11.86
2023-05-04T10:30:27.872Z,11.86
2023-05-04T10:31:27.904Z,11.94
2023-05-04T10:32:27.890Z,11.86
2023-05-04T10:33:28.042Z,12.43
2023-05-04T10:34:27.844Z,12.02
2023-05-04T10:35:27.878Z,12.02
2023-05-04T10:36:27.812Z,11.39
2023-05-04T10:37:27.803Z,11.86
2023-05-04T10:38:27.807Z,12.43
2023-05-04T10:39:27.817Z,12.02
2023-05-04T10:40:27.979Z,12.02
2023-05-04T10:41:27.788Z,11.79
2023-05-04T10:42:27.779Z,12.02
2023-05-04T10:43:27.745Z,12.60
2023-05-04T10:44:27.733Z,11.94
2023-05-04T10:45:27.731Z,12.51
2023-05-04T10:46:27.715Z,12.92
2023-05-04T10:47:27.730Z,11.94
2023-05-04T10:48:27.695Z,12.43
2023-05-04T10:49:27.691Z,12.10
2023-05-04T10:50:27.684Z,11.63
2023-05-04T10:51:35.709Z,11.86
2023-05-04T10:52:28.685Z,12.18
2023-05-04T10:53:27.644Z,11.94
2023-05-04T10:54:27.638Z,11.94
2023-05-04T10:55:27.623Z,11.94
2023-05-04T10:56:27.614Z,12.18
2023-05-04T10:57:27.628Z,11.94
2023-05-04T10:58:27.806Z,12.43
2023-05-04T10:59:27.588Z,12.02
2023-05-04T11:00:27.577Z,11.79
2023-05-04T11:01:27.569Z,12.10
2023-05-04T11:02:27.690Z,11.47
2023-05-04T11:03:27.745Z,12.51
2023-05-04T11:04:27.535Z,12.18
2023-05-04T11:05:27.529Z,12.18
2023-05-04T11:06:27.541Z,12.35
2023-05-04T11:07:27.515Z,12.68
2023-05-04T11:08:27.518Z,12.43
2023-05-04T11:09:27.485Z,13.07
2023-05-04T11:10:27.481Z,12.10
2023-05-04T11:11:27.465Z,12.51
2023-05-04T11:12:27.457Z,12.27
2023-05-04T11:13:27.480Z,12.76
2023-05-04T11:14:27.439Z,12.60
2023-05-04T11:15:27.428Z,12.51
2023-05-04T11:16:27.504Z,12.76
2023-05-04T11:17:28.741Z,12.51
2023-05-04T11:18:27.400Z,12.92
2023-05-04T11:19:27.394Z,12.60
2023-05-04T11:20:27.387Z,12.51
2023-05-04T11:21:27.376Z,12.76
2023-05-04T11:22:27.361Z,13.15
2023-05-04T11:23:27.352Z,12.43
2023-05-04T11:24:27.342Z,12.43
2023-05-04T11:25:27.354Z,13.72
2023-05-04T11:26:27.323Z,12.02
2023-05-04T11:27:27.311Z,12.76
2023-05-04T11:28:27.306Z,12.84
2023-05-04T11:29:27.323Z,12.43
2023-05-04T11:30:27.289Z,11.94
2023-05-04T11:31:27.344Z,12.27
2023-05-04T11:32:27.273Z,13.07
2023-05-04T11:33:27.256Z,12.60
2023-05-04T11:34:27.249Z,12.68
2023-05-04T11:35:27.241Z,12.76
2023-05-04T11:36:27.233Z,12.84
2023-05-04T11:37:27.215Z,13.07
2023-05-04T11:38:27.207Z,13.00
2023-05-04T11:39:27.191Z,11.94
2023-05-04T11:40:27.183Z,12.84
2023-05-04T11:41:27.173Z,12.60
2023-05-04T11:42:27.161Z,12.84
2023-05-04T11:43:27.152Z,13.31
2023-05-04T11:44:27.144Z,13.07
2023-05-04T11:45:27.159Z,12.43
2023-05-04T11:46:27.202Z,13.23
2023-05-04T11:47:27.125Z,13.00
2023-05-04T11:48:27.104Z,13.00
2023-05-04T11:49:27.092Z,13.15
2023-05-04T11:50:27.087Z,12.35
2023-05-04T11:51:27.075Z,13.56
2023-05-04T11:52:27.067Z,12.02
2023-05-04T11:53:27.057Z,12.02
2023-05-04T11:54:27.046Z,13.56
2023-05-04T11:55:27.034Z,13.07
2023-05-04T11:56:27.027Z,13.07
2023-05-04T11:57:27.019Z,12.43
2023-05-04T11:58:27.019Z,12.51
2023-05-04T11:59:27.007Z,13.23
2023-05-04T12:00:26.993Z,13.56
2023-05-04T12:01:27.005Z,12.76
2023-05-04T12:02:27.004Z,12.51
2023-05-04T12:03:32.691Z,13.23
2023-05-04T12:04:28.051Z,13.15
2023-05-04T12:05:26.944Z,13.64
2023-05-04T12:06:26.927Z,12.92
2023-05-04T12:07:26.923Z,13.64
2023-05-04T12:08:26.906Z,13.00
2023-05-04T12:09:26.917Z,13.31
2023-05-04T12:10:26.886Z,13.23
2023-05-04T12:11:26.890Z,13.23
2023-05-04T12:12:27.069Z,12.18
2023-05-04T12:13:26.856Z,13.39
2023-05-04T12:14:26.846Z,13.07
2023-05-04T12:15:26.836Z,13.96
2023-05-04T12:16:26.888Z,13.72
2023-05-04T12:17:26.849Z,13.15
2023-05-04T12:18:26.808Z,12.92
2023-05-04T12:19:26.809Z,13.15
2023-05-04T12:20:26.997Z,13.23
2023-05-04T12:21:26.774Z,13.31
2023-05-04T12:22:26.766Z,13.96
2023-05-04T12:23:26.764Z,12.84
2023-05-04T12:24:26.755Z,13.31
2023-05-04T12:25:26.734Z,13.00
2023-05-04T12:26:26.726Z,13.23
2023-05-04T12:27:26.714Z,13.80
2023-05-04T12:28:26.723Z,13.31
2023-05-04T12:29:26.715Z,13.39
2023-05-04T12:30:26.685Z,13.47
2023-05-04T12:31:26.692Z,12.60
2023-05-04T12:32:26.708Z,13.31
2023-05-04T12:33:26.680Z,12.43
2023-05-04T12:34:26.648Z,13.64
2023-05-04T12:35:26.638Z,13.07
2023-05-04T12:36:26.632Z,13.07
2023-05-04T12:37:26.615Z,14.21
2023-05-04T12:38:26.638Z,13.56
2023-05-04T12:39:26.609Z,13.64
2023-05-04T12:40:28.773Z,14.05
2023-05-04T12:41:26.573Z,14.05
2023-05-04T12:42:26.569Z,13.15
2023-05-04T12:43:26.575Z,13.15
2023-05-04T12:44:26.546Z,14.13
2023-05-04T12:45:26.532Z,13.72
2023-05-04T12:46:26.542Z,13.23
2023-05-04T12:47:26.549Z,13.64
2023-05-04T12:48:26.510Z,13.80
2023-05-04T12:49:26.537Z,13.80
2023-05-04T12:50:26.484Z,13.47
2023-05-04T12:51:26.473Z,13.23
2023-05-04T12:52:26.462Z,13.07
2023-05-04T12:53:26.450Z,13.23
2023-05-04T12:54:26.466Z,13.72
2023-05-04T12:55:26.430Z,13.39
2023-05-04T12:56:26.424Z,13.23
2023-05-04T12:57:26.409Z,13.72
2023-05-04T12:58:26.412Z,12.92
2023-05-04T12:59:26.401Z,13.96
2023-05-04T13:00:26.376Z,13.47
2023-05-04T13:01:26.392Z,13.56
2023-05-04T13:02:26.400Z,13.39
2023-05-04T13:03:26.477Z,13.72
2023-05-04T13:04:26.340Z,13.56
2023-05-04T13:05:26.374Z,13.15
2023-05-04T13:06:26.321Z,13.88
2023-05-04T13:07:26.311Z,13.64
2023-05-04T13:08:26.313Z,13.80
2023-05-04T13:09:26.284Z,13.15
2023-05-04T13:10:26.285Z,13.15
2023-05-04T13:11:26.268Z,13.88
2023-05-04T13:12:26.269Z,13.96
2023-05-04T13:13:26.390Z,13.80
2023-05-04T13:14:26.240Z,13.96
2023-05-04T13:15:26.232Z,13.88
2023-05-04T13:16:26.306Z,14.21
2023-05-04T13:17:26.235Z,13.56
2023-05-04T13:18:26.211Z,13.56
2023-05-04T13:19:26.390Z,14.28
2023-05-04T13:20:26.188Z,13.96
2023-05-04T13:21:26.196Z,13.39
2023-05-04T13:22:26.162Z,14.05
2023-05-04T13:23:26.191Z,13.64
2023-05-04T13:24:26.145Z,14.05
2023-05-04T13:25:26.133Z,13.07
2023-05-04T13:26:26.121Z,13.72
2023-05-04T13:27:26.113Z,14.13
2023-05-04T13:28:26.108Z,14.28
2023-05-04T13:29:26.088Z,14.28
2023-05-04T13:30:26.090Z,13.56
2023-05-04T13:31:26.100Z,14.05
2023-05-04T13:32:26.074Z,14.21
2023-05-04T13:33:29.981Z,13.96
2023-05-04T13:34:26.036Z,14.36
2023-05-04T13:35:26.025Z,14.21
2023-05-04T13:36:26.020Z,14.21
2023-05-04T13:37:26.030Z,15.17
2023-05-04T13:38:25.999Z,13.31
2023-05-04T13:39:25.986Z,14.13
2023-05-04T13:40:25.976Z,14.13
2023-05-04T13:41:25.965Z,14.52
2023-05-04T13:42:25.958Z,13.47
2023-05-04T13:43:25.945Z,14.13
2023-05-04T13:44:25.935Z,14.21
2023-05-04T13:45:25.931Z,14.85
2023-05-04T13:46:25.964Z,14.05
2023-05-04T13:47:26.002Z,14.13
2023-05-04T13:48:26.243Z,13.80
2023-05-04T13:49:25.884Z,14.21
2023-05-04T13:50:25.874Z,14.05
2023-05-04T13:51:25.862Z,15.32
2023-05-04T13:52:25.860Z,14.36
2023-05-04T13:53:25.902Z,14.21
2023-05-04T13:54:25.833Z,14.28
2023-05-04T13:55:25.821Z,14.36
2023-05-04T13:56:25.818Z,14.13
2023-05-04T13:57:25.802Z,14.44
2023-05-04T13:58:25.793Z,14.44
2023-05-04T13:59:25.782Z,13.96
2023-05-04T14:00:25.798Z,14.52
2023-05-04T14:01:25.842Z,14.60
2023-05-04T14:02:26.024Z,13.88
2023-05-04T14:03:25.800Z,13.64
2023-05-04T14:04:25.775Z,13.88
2023-05-04T14:05:25.790Z,14.77
2023-05-04T14:06:25.787Z,13.96
2023-05-04T14:07:59.619Z,14.44
2023-05-04T14:08:59.634Z,13.96
2023-05-04T14:09:59.601Z,15.01
2023-05-04T14:10:59.598Z,13.80
2023-05-04T14:11:59.579Z,14.36
2023-05-04T14:12:59.592Z,14.52
2023-05-04T14:13:59.559Z,14.21
2023-05-04T14:14:59.548Z,14.28
2023-05-04T14:15:59.559Z,14.44
2023-05-04T14:16:59.765Z,14.77
2023-05-04T14:17:59.537Z,14.85
2023-05-04T14:18:59.506Z,14.44
2023-05-04T14:19:59.498Z,14.85
2023-05-04T14:20:59.481Z,14.36
2023-05-04T14:21:59.476Z,13.80
2023-05-04T14:22:59.474Z,14.60
2023-05-04T14:23:59.462Z,14.36
2023-05-04T14:24:59.529Z,14.68
2023-05-04T14:25:59.436Z,14.85
2023-05-04T14:26:59.429Z,14.28
2023-05-04T14:27:59.414Z,15.17
2023-05-04T14:28:59.406Z,13.96
2023-05-04T14:29:59.396Z,14.93
2023-05-04T14:30:59.384Z,14.28
2023-05-04T14:31:59.431Z,14.44
2023-05-04T14:32:59.418Z,14.93
2023-05-04T14:33:59.353Z,14.21
2023-05-04T14:34:59.343Z,14.77
2023-05-04T14:35:59.339Z,14.52
2023-05-04T14:36:59.540Z,14.68
2023-05-04T14:37:59.312Z,14.68
2023-05-04T14:38:59.304Z,14.68
2023-05-04T14:39:59.294Z,15.17
2023-05-04T14:40:59.303Z,14.68
2023-05-04T14:41:59.281Z,15.40
2023-05-04T14:42:59.260Z,15.01
2023-05-04T14:43:59.253Z,15.09
2023-05-04T14:44:59.236Z,14.60
2023-05-04T14:45:59.363Z,15.09
2023-05-04T14:46:59.216Z,14.93
2023-05-04T14:47:59.335Z,14.28
2023-05-04T14:48:59.202Z,14.52
2023-05-04T14:49:59.194Z,14.52
2023-05-04T14:50:59.182Z,14.36
2023-05-04T14:51:59.174Z,14.68
2023-05-04T14:52:59.165Z,15.01
2023-05-04T14:53:59.155Z,14.85
2023-05-04T14:54:59.142Z,14.85
2023-05-04T14:55:59.133Z,14.93
2023-05-04T14:56:59.250Z,15.09
2023-05-04T14:57:59.117Z,14.68
2023-05-04T14:58:59.305Z,15.17
2023-05-04T14:59:59.090Z,14.68
2023-05-04T15:00:59.135Z,15.25
2023-05-04T15:01:59.279Z,15.40
2023-05-04T15:02:59.153Z,14.68
2023-05-04T15:03:59.114Z,15.57
2023-05-04T15:04:59.048Z,14.93
2023-05-04T15:05:59.038Z,15.25
2023-05-04T15:06:59.024Z,15.17
2023-05-04T15:07:59.014Z,15.09
2023-05-04T15:08:59.000Z,15.25
2023-05-04T15:09:59.000Z,15.09
2023-05-04T15:10:58.987Z,15.50
2023-05-04T15:11:58.982Z,15.73
2023-05-04T15:12:59.058Z,15.50
2023-05-04T15:13:58.962Z,15.57
2023-05-04T15:14:58.946Z,15.89
2023-05-04T15:15:58.996Z,15.50
2023-05-04T15:16:58.922Z,15.65
2023-05-04T15:17:58.953Z,16.37
2023-05-04T15:18:58.905Z,15.81
2023-05-04T15:19:58.889Z,15.57
2023-05-04T15:20:58.879Z,15.57
2023-05-04T15:21:58.869Z,15.50
2023-05-04T15:22:59.061Z,16.37
2023-05-04T15:23:58.854Z,16.29
2023-05-04T15:24:58.844Z,15.89
2023-05-04T15:25:58.828Z,15.57
2023-05-04T15:26:58.821Z,16.45
2023-05-04T15:27:58.810Z,16.45
2023-05-04T15:28:58.814Z,15.89
2023-05-04T15:29:58.812Z,16.70
2023-05-04T15:30:58.785Z,16.87
2023-05-04T15:31:58.807Z,15.97
2023-05-04T15:32:58.793Z,15.65
2023-05-04T15:33:58.749Z,16.62
2023-05-04T15:35:05.366Z,16.37
2023-05-04T15:35:59.760Z,16.78
2023-05-04T15:36:58.720Z,16.21
2023-05-04T15:37:58.712Z,16.05
2023-05-04T15:38:58.697Z,16.70
2023-05-04T15:40:00.400Z,16.37
2023-05-04T15:40:58.676Z,16.78
2023-05-04T15:41:58.681Z,16.95
2023-05-04T15:42:58.688Z,17.35
2023-05-04T15:43:58.659Z,17.19
2023-05-04T15:44:58.686Z,17.03
2023-05-04T15:45:58.627Z,15.57
2023-05-04T15:46:58.681Z,15.57
2023-05-04T15:47:58.674Z,16.37
2023-05-04T15:48:58.596Z,16.95
2023-05-04T15:49:58.592Z,16.78
2023-05-04T15:50:58.596Z,17.27
2023-05-04T15:51:58.567Z,16.21
2023-05-04T15:52:58.558Z,15.73
2023-05-04T15:53:58.545Z,17.19
2023-05-04T15:55:00.695Z,16.78
2023-05-04T15:55:58.527Z,15.65
2023-05-04T15:56:58.514Z,17.03
2023-05-04T15:57:58.514Z,17.27
2023-05-04T15:58:58.490Z,17.27
2023-05-04T15:59:58.485Z,17.43
2023-05-04T16:00:58.550Z,17.11
2023-05-04T16:01:58.465Z,16.62
2023-05-04T16:02:58.500Z,16.62
2023-05-04T16:03:58.472Z,16.54
2023-05-04T16:04:58.437Z,16.95
2023-05-04T16:05:58.423Z,17.19
2023-05-04T16:06:58.411Z,15.81
2023-05-04T16:07:58.414Z,17.90
2023-05-04T16:08:58.393Z,17.11
2023-05-04T16:09:58.386Z,16.78
2023-05-04T16:10:58.369Z,17.59
2023-05-04T16:11:58.361Z,17.43
2023-05-04T16:12:58.414Z,16.78
2023-05-04T16:13:58.344Z,17.35
2023-05-04T16:14:58.337Z,17.19
2023-05-04T16:15:58.336Z,17.03
2023-05-04T16:16:58.452Z,17.19
2023-05-04T16:17:58.411Z,17.59
2023-05-04T16:18:58.293Z,17.11
2023-05-04T16:19:58.281Z,16.78
2023-05-04T16:20:58.279Z,17.03
2023-05-04T16:21:58.263Z,18.22
2023-05-04T16:22:58.288Z,16.21
2023-05-04T16:23:58.242Z,16.54
2023-05-04T16:24:58.431Z,18.71
2023-05-04T16:25:58.231Z,17.82
2023-05-04T16:26:58.210Z,16.87
2023-05-04T16:27:58.222Z,17.59
2023-05-04T16:28:58.192Z,17.51
2023-05-04T16:29:58.182Z,17.43
2023-05-04T16:30:58.242Z,17.27
2023-05-04T16:31:58.165Z,17.27
2023-05-04T16:32:58.186Z,17.35
2023-05-04T16:33:58.143Z,16.70
2023-05-04T16:34:58.168Z,17.19
2023-05-04T16:35:58.123Z,17.27
2023-05-04T16:36:58.115Z,17.35
2023-05-04T16:37:58.099Z,16.29
2023-05-04T16:38:58.093Z,17.75
2023-05-04T16:39:58.081Z,17.27
2023-05-04T16:40:58.072Z,16.87
2023-05-04T16:41:58.068Z,16.87
2023-05-04T16:42:58.052Z,16.29
2023-05-04T16:43:58.043Z,17.51
2023-05-04T16:44:58.038Z,17.43
2023-05-04T16:45:58.115Z,16.37
2023-05-04T16:46:58.020Z,17.11
2023-05-04T16:47:58.067Z,17.27
2023-05-04T16:48:58.018Z,16.70
2023-05-04T16:49:57.984Z,17.11
2023-05-04T16:50:57.970Z,16.54
2023-05-04T16:51:57.970Z,17.35
2023-05-04T16:52:57.952Z,16.78
2023-05-04T16:53:57.967Z,17.03
2023-05-04T16:54:57.928Z,16.95
2023-05-04T16:55:57.923Z,16.62
2023-05-04T16:56:57.911Z,17.35
2023-05-04T16:57:57.914Z,16.29
2023-05-04T16:58:57.888Z,16.70
2023-05-04T16:59:57.884Z,16.87
2023-05-04T17:00:57.870Z,16.95
2023-05-04T17:01:57.904Z,17.35
2023-05-04T17:02:58.093Z,16.54
2023-05-04T17:03:57.879Z,16.45
2023-05-04T17:04:57.851Z,16.62
2023-05-04T17:05:57.818Z,16.95
2023-05-04T17:06:57.805Z,16.70
2023-05-04T17:07:57.800Z,17.59
2023-05-04T17:08:57.796Z,16.05
2023-05-04T17:09:57.799Z,16.62
2023-05-04T17:10:57.777Z,16.87
2023-05-04T17:11:57.824Z,15.81
2023-05-04T17:12:58.198Z,16.21
2023-05-04T17:13:57.739Z,16.78
2023-05-04T17:14:57.725Z,16.54
2023-05-04T17:15:57.736Z,16.21
2023-05-04T17:16:57.705Z,16.29
2023-05-04T17:17:57.750Z,15.65
2023-05-04T17:18:57.690Z,16.70
2023-05-04T17:19:57.691Z,16.95
2023-05-04T17:20:57.686Z,16.21
2023-05-04T17:21:57.653Z,16.37
2023-05-04T17:22:57.664Z,15.65
2023-05-04T17:23:57.631Z,16.29
2023-05-04T17:24:57.631Z,16.13
2023-05-04T17:25:57.608Z,16.29
2023-05-04T17:26:57.600Z,15.89
2023-05-04T17:27:57.595Z,15.65
2023-05-04T17:28:57.583Z,15.89
2023-05-04T17:29:57.577Z,15.50
2023-05-04T17:30:57.557Z,15.57
2023-05-04T17:31:57.587Z,15.81
2023-05-04T17:32:57.630Z,16.13
2023-05-04T17:33:57.531Z,15.57
2023-05-04T17:34:58.462Z,15.97
2023-05-04T17:35:57.503Z,16.21
2023-05-04T17:36:57.519Z,15.57
2023-05-04T17:37:59.057Z,15.73
2023-05-04T17:38:57.470Z,16.13
2023-05-04T17:39:57.501Z,15.89
2023-05-04T17:40:57.469Z,15.09
2023-05-04T17:41:57.443Z,15.01
2023-05-04T17:42:57.528Z,15.65
2023-05-04T17:43:57.423Z,15.97
2023-05-04T17:44:57.413Z,16.45
2023-05-04T17:45:57.431Z,15.73
2023-05-04T17:46:57.392Z,15.73
2023-05-04T17:47:57.439Z,15.25
2023-05-04T17:48:57.371Z,16.05
2023-05-04T17:49:57.359Z,15.50
2023-05-04T17:50:57.352Z,15.09
2023-05-04T17:51:57.338Z,15.73
2023-05-04T17:52:57.353Z,15.97
2023-05-04T17:53:57.327Z,15.65
2023-05-04T17:54:57.309Z,16.21
2023-05-04T17:55:57.308Z,15.40
2023-05-04T17:56:57.298Z,15.50
2023-05-04T17:57:57.279Z,15.57
2023-05-04T17:58:57.274Z,15.57
2023-05-04T17:59:57.255Z,15.81
2023-05-04T18:00:57.260Z,15.40
2023-05-04T18:01:57.256Z,15.25
2023-05-04T18:02:57.319Z,15.57
2023-05-04T18:03:57.262Z,15.73
2023-05-04T18:04:57.200Z,15.25
2023-05-04T18:05:57.194Z,15.50
2023-05-04T18:06:57.184Z,15.09
2023-05-04T18:07:57.178Z,15.25
2023-05-04T18:08:57.190Z,15.57
2023-05-04T18:09:57.149Z,15.17
2023-05-04T18:10:57.145Z,15.17
2023-05-04T18:11:57.126Z,14.85
2023-05-04T18:12:57.133Z,15.25
2023-05-04T18:13:57.118Z,14.77
2023-05-04T18:14:57.126Z,15.40
2023-05-04T18:15:57.107Z,14.60
2023-05-04T18:16:57.086Z,15.01
2023-05-04T18:17:57.118Z,15.32
2023-05-04T18:18:58.402Z,14.93
2023-05-04T18:19:57.044Z,14.85
2023-05-04T18:20:57.035Z,13.96
2023-05-04T18:21:57.031Z,15.25
2023-05-04T18:22:57.015Z,14.28
2023-05-04T18:23:57.012Z,15.25
2023-05-04T18:24:57.014Z,14.93
2023-05-04T18:25:57.003Z,14.52
2023-05-04T18:26:56.973Z,14.77
2023-05-04T18:27:56.968Z,14.60
2023-05-04T18:29:04.217Z,14.60
2023-05-04T18:29:57.968Z,14.52
2023-05-04T18:30:56.931Z,15.09
2023-05-04T18:31:56.945Z,14.44
2023-05-04T18:32:56.972Z,14.85
2023-05-04T18:33:56.901Z,15.17
2023-05-04T18:34:56.893Z,15.25
2023-05-04T18:35:56.879Z,13.96
2023-05-04T18:36:56.882Z,15.25
2023-05-04T18:37:56.860Z,14.28
2023-05-04T18:38:56.850Z,14.68
2023-05-04T18:39:56.835Z,14.05
2023-05-04T18:40:56.848Z,14.60
2023-05-04T18:41:56.817Z,14.93
2023-05-04T18:42:56.807Z,14.28
2023-05-04T18:43:56.795Z,14.60
2023-05-04T18:44:56.786Z,14.77
2023-05-04T18:45:56.787Z,14.52
2023-05-04T18:46:56.775Z,14.77
2023-05-04T18:47:56.814Z,14.05
2023-05-04T18:48:56.749Z,13.56
2023-05-04T18:49:56.742Z,14.85
2023-05-04T18:50:56.727Z,14.77
2023-05-04T18:51:56.709Z,15.01
2023-05-04T18:52:56.705Z,14.68
2023-05-04T18:53:56.690Z,14.28
2023-05-04T18:54:56.680Z,13.96
2023-05-04T18:55:56.669Z,14.52
2023-05-04T18:56:56.681Z,14.05
2023-05-04T18:57:56.654Z,13.96
2023-05-04T18:58:56.645Z,14.68
2023-05-04T18:59:56.633Z,13.80
2023-05-04T19:00:56.660Z,13.07
2023-05-04T19:01:56.616Z,14.13
2023-05-04T19:02:56.651Z,14.13
2023-05-04T19:03:56.645Z,14.28
2023-05-04T19:04:56.620Z,14.28
2023-05-04T19:05:56.586Z,13.64
2023-05-04T19:06:56.556Z,14.13
2023-05-04T19:07:56.540Z,13.64
2023-05-04T19:08:56.764Z,13.96
